Time;durP1;ratioP1;P1;durP2;ratioP2;P2;SDS_P1;SDS_P2;PMS_P1;PMS_P2;Temp;Humidity;BMP_temperature;BMP_pressure;BME280_temperature;BME280_humidity;BME280_pressure;Samples;Min_cycle;Max_cycle;Signal;HPM_P1;HPM_P2
2023/08/05 00:01:16;;;;;;;0.20;0.10;;;;;;;;;;5001926;28;20042;-78
2023/08/05 00:03:42;;;;;;;0.20;0.10;;;;;;;;;;4993910;28;20041;-79
2023/08/05 00:06:10;;;;;;;0.20;0.00;;;;;;;;;;4992393;28;20050;-80
2023/08/05 00:08:36;;;;;;;0.20;0.10;;;;;;;;;;4979795;28;20046;-80
2023/08/05 00:11:02;;;;;;;0.20;0.10;;;;;;;;;;5006215;28;20045;-80
2023/08/05 00:13:34;;;;;;;0.20;0.10;;;;;;;;;;5025493;28;20041;-80
2023/08/05 00:16:00;;;;;;;0.20;0.10;;;;;;;;;;5007873;28;21492;-79
2023/08/05 00:18:26;;;;;;;0.40;0.20;;;;;;;;;;4994854;28;20061;-79
2023/08/05 00:20:52;;;;;;;0.20;0.10;;;;;;;;;;4983655;28;20041;-79
2023/08/05 00:23:19;;;;;;;0.22;0.10;;;;;;;;;;4976427;28;20172;-79
2023/08/05 00:25:45;;;;;;;0.20;0.10;;;;;;;;;;4998327;28;20045;-80
2023/08/05 00:28:11;;;;;;;0.20;0.10;;;;;;;;;;4991630;28;20157;-79
2023/08/05 00:30:37;;;;;;;0.20;0.10;;;;;;;;;;4978992;28;20077;-80
2023/08/05 00:33:03;;;;;;;0.20;0.10;;;;;;;;;;4997924;28;20449;-80
2023/08/05 00:35:29;;;;;;;0.20;0.17;;;;;;;;;;4978773;28;20147;-80
2023/08/05 00:37:55;;;;;;;0.20;0.17;;;;;;;;;;4997326;28;20037;-80
2023/08/05 00:40:21;;;;;;;0.20;0.00;;;;;;;;;;4993841;28;20041;-79
2023/08/05 00:42:47;;;;;;;0.20;0.10;;;;;;;;;;4983005;28;20042;-79
2023/08/05 00:45:13;;;;;;;0.22;0.22;;;;;;;;;;5002105;28;20030;-80
2023/08/05 00:47:40;;;;;;;0.20;0.10;;;;;;;;;;4984380;28;20041;-80
2023/08/05 00:50:07;;;;;;;0.20;0.00;;;;;;;;;;4984543;28;20038;-81
2023/08/05 00:52:33;;;;;;;0.20;0.17;;;;;;;;;;4985749;28;20046;-80
2023/08/05 00:54:59;;;;;;;0.20;0.10;;;;;;;;;;4993292;28;20058;-80
2023/08/05 00:57:25;;;;;;;0.20;0.10;;;;;;;;;;4976917;28;20090;-80
2023/08/05 00:59:51;;;;;;;0.20;0.08;;;;;;;;;;4997113;28;20077;-80
2023/08/05 01:02:17;;;;;;;0.43;0.10;;;;;;;;;;4975114;28;20052;-79
2023/08/05 01:04:43;;;;;;;0.20;0.15;;;;;;;;;;4988852;28;20038;-80
2023/08/05 01:07:10;;;;;;;0.47;0.38;;;;;;;;;;4974339;28;20030;-78
2023/08/05 01:09:36;;;;;;;0.20;0.10;;;;;;;;;;4978580;28;20029;-80
2023/08/05 01:12:03;;;;;;;0.35;0.30;;;;;;;;;;5012707;28;20172;-79
2023/08/05 01:14:29;;;;;;;0.20;0.10;;;;;;;;;;4996687;28;20123;-79
2023/08/05 01:16:55;;;;;;;0.20;0.10;;;;;;;;;;4979739;28;20037;-79
2023/08/05 01:19:21;;;;;;;0.20;0.10;;;;;;;;;;5002675;28;20092;-80
2023/08/05 01:22:06;;;;;;;0.30;0.20;;;;;;;;;;5003468;28;20095;-79
2023/08/05 01:24:37;;;;;;;0.20;0.10;;;;;;;;;;4997818;28;20033;-79
2023/08/05 01:27:04;;;;;;;0.22;0.13;;;;;;;;;;4993259;28;20037;-79
2023/08/05 01:29:30;;;;;;;0.40;0.20;;;;;;;;;;4980737;28;20041;-80
2023/08/05 01:31:56;;;;;;;0.20;0.05;;;;;;;;;;4995489;28;20084;-80
2023/08/05 01:34:22;;;;;;;0.20;0.10;;;;;;;;;;4983740;28;20058;-79
2023/08/05 01:36:48;;;;;;;0.20;0.05;;;;;;;;;;4998084;28;20089;-78
2023/08/05 01:39:14;;;;;;;0.20;0.17;;;;;;;;;;4984061;28;20392;-80
2023/08/05 01:41:40;;;;;;;0.20;0.10;;;;;;;;;;4985213;28;20050;-80
2023/08/05 01:44:06;;;;;;;0.20;0.10;;;;;;;;;;4997334;28;20576;-80
2023/08/05 01:46:33;;;;;;;0.20;0.10;;;;;;;;;;4982043;28;20037;-80
2023/08/05 01:48:59;;;;;;;0.20;0.10;;;;;;;;;;4992717;28;20125;-80
2023/08/05 01:51:25;;;;;;;0.30;0.20;;;;;;;;;;5000703;28;20055;-80
2023/08/05 01:53:51;;;;;;;0.20;0.10;;;;;;;;;;5003178;28;20077;-79
2023/08/05 01:56:17;;;;;;;0.20;0.20;;;;;;;;;;4999442;28;20045;-79
2023/08/05 01:58:43;;;;;;;1.02;0.22;;;;;;;;;;5000111;28;20046;-80
2023/08/05 02:01:09;;;;;;;0.20;0.10;;;;;;;;;;5001988;28;20508;-80
2023/08/05 02:03:35;;;;;;;0.38;0.15;;;;;;;;;;4985356;28;20053;-80
2023/08/05 02:06:01;;;;;;;0.20;0.10;;;;;;;;;;4982240;28;20038;-79
2023/08/05 02:08:27;;;;;;;0.22;0.20;;;;;;;;;;4992523;28;20042;-79
2023/08/05 02:10:53;;;;;;;0.63;0.30;;;;;;;;;;4982498;28;20037;-79
2023/08/05 02:13:19;;;;;;;0.20;0.00;;;;;;;;;;4993020;28;20030;-79
2023/08/05 02:15:45;;;;;;;0.20;0.10;;;;;;;;;;4989108;28;20406;-79
2023/08/05 02:18:11;;;;;;;0.30;0.20;;;;;;;;;;4978357;28;20742;-78
2023/08/05 02:20:37;;;;;;;0.20;0.10;;;;;;;;;;4997488;28;20048;-78
2023/08/05 02:23:03;;;;;;;0.20;0.10;;;;;;;;;;4985795;28;20494;-80
2023/08/05 02:25:29;;;;;;;0.20;0.10;;;;;;;;;;4989279;28;20043;-80
2023/08/05 02:27:55;;;;;;;0.20;0.05;;;;;;;;;;5005128;28;20057;-80
2023/08/05 02:30:21;;;;;;;0.20;0.00;;;;;;;;;;4990811;28;20038;-78
2023/08/05 02:32:47;;;;;;;0.20;0.10;;;;;;;;;;5010142;22;20070;-85
2023/08/05 02:35:13;;;;;;;0.28;0.17;;;;;;;;;;5006799;28;20675;-85
2023/08/05 02:37:39;;;;;;;0.20;0.15;;;;;;;;;;4978364;28;20096;-86
2023/08/05 02:40:06;;;;;;;0.20;0.10;;;;;;;;;;4977265;28;20495;-86
2023/08/05 02:42:32;;;;;;;0.20;0.00;;;;;;;;;;4992648;28;20042;-86
2023/08/05 02:44:58;;;;;;;0.20;0.10;;;;;;;;;;4993942;28;20066;-85
2023/08/05 02:47:24;;;;;;;0.20;0.03;;;;;;;;;;4987875;28;20049;-85
2023/08/05 02:49:50;;;;;;;0.20;0.10;;;;;;;;;;4977467;28;20033;-85
2023/08/05 02:52:16;;;;;;;0.30;0.10;;;;;;;;;;4991025;28;20046;-85
2023/08/05 02:54:42;;;;;;;0.20;0.10;;;;;;;;;;4990478;28;20057;-85
2023/08/05 02:57:08;;;;;;;0.20;0.00;;;;;;;;;;4980377;28;20053;-85
2023/08/05 02:59:34;;;;;;;0.20;0.00;;;;;;;;;;4975373;28;20038;-85
2023/08/05 03:02:00;;;;;;;0.20;0.05;;;;;;;;;;4987804;28;20045;-85
2023/08/05 03:04:26;;;;;;;0.20;0.00;;;;;;;;;;4990880;28;20065;-85
2023/08/05 03:06:52;;;;;;;0.20;0.00;;;;;;;;;;4992368;28;20502;-85
2023/08/05 03:09:18;;;;;;;0.20;0.10;;;;;;;;;;4992804;28;20139;-84
2023/08/05 03:11:44;;;;;;;0.20;0.00;;;;;;;;;;4986896;28;20034;-85
2023/08/05 03:14:11;;;;;;;0.20;0.10;;;;;;;;;;4989518;28;20034;-86
2023/08/05 03:16:37;;;;;;;0.20;0.10;;;;;;;;;;4991565;28;20040;-85
2023/08/05 03:19:03;;;;;;;0.35;0.35;;;;;;;;;;4994122;28;20637;-85
2023/08/05 03:21:29;;;;;;;0.20;0.10;;;;;;;;;;4983063;28;20041;-87
2023/08/05 03:23:55;;;;;;;0.20;0.10;;;;;;;;;;4984556;28;20042;-85
2023/08/05 03:26:21;;;;;;;0.20;0.00;;;;;;;;;;4987771;28;20482;-84
2023/08/05 03:28:47;;;;;;;0.20;0.00;;;;;;;;;;4980057;28;20038;-84
2023/08/05 03:31:13;;;;;;;0.20;0.10;;;;;;;;;;4995608;28;20095;-84
2023/08/05 03:33:39;;;;;;;0.20;0.10;;;;;;;;;;4998726;28;20457;-85
2023/08/05 03:36:05;;;;;;;0.28;0.28;;;;;;;;;;4999083;28;20145;-84
2023/08/05 03:38:31;;;;;;;0.20;0.10;;;;;;;;;;4984414;28;20205;-84
2023/08/05 03:41:01;;;;;;;0.68;0.43;;;;;;;;;;4982537;28;20047;-84
2023/08/05 03:43:27;;;;;;;0.20;0.10;;;;;;;;;;4996485;28;20041;-85
2023/08/05 03:45:53;;;;;;;0.20;0.10;;;;;;;;;;4995351;28;20042;-86
2023/08/05 03:48:19;;;;;;;0.20;0.10;;;;;;;;;;4988406;28;20084;-85
2023/08/05 03:50:45;;;;;;;0.20;0.00;;;;;;;;;;5001708;28;20521;-86
2023/08/05 03:53:11;;;;;;;0.43;0.28;;;;;;;;;;4986404;28;20041;-85
2023/08/05 03:55:37;;;;;;;0.20;0.10;;;;;;;;;;5000719;28;20045;-85
2023/08/05 03:58:07;;;;;;;0.20;0.10;;;;;;;;;;4989211;28;20072;-85
2023/08/05 04:00:34;;;;;;;0.20;0.10;;;;;;;;;;4987036;28;21933;-85
2023/08/05 04:03:00;;;;;;;0.20;0.10;;;;;;;;;;4999070;28;20040;-84
2023/08/05 04:05:26;;;;;;;0.20;0.10;;;;;;;;;;5001044;28;20034;-85
2023/08/05 04:07:53;;;;;;;0.20;0.00;;;;;;;;;;4994563;28;20038;-85
2023/08/05 04:10:21;;;;;;;0.20;0.10;;;;;;;;;;4988929;28;20054;-84
2023/08/05 04:12:48;;;;;;;0.20;0.10;;;;;;;;;;4997628;28;20040;-84
2023/08/05 04:15:14;;;;;;;0.28;0.28;;;;;;;;;;4983151;28;20049;-85
2023/08/05 04:17:42;;;;;;;0.20;0.10;;;;;;;;;;4983085;28;20513;-85
2023/08/05 04:20:08;;;;;;;0.20;0.10;;;;;;;;;;4978594;28;20052;-85
2023/08/05 04:22:35;;;;;;;0.20;0.00;;;;;;;;;;4990388;28;20053;-86
2023/08/05 04:25:01;;;;;;;0.30;0.20;;;;;;;;;;4996841;28;20042;-85
2023/08/05 04:27:27;;;;;;;0.20;0.10;;;;;;;;;;4992437;28;20036;-84
2023/08/05 04:29:54;;;;;;;0.25;0.10;;;;;;;;;;4993478;28;20038;-86
2023/08/05 04:32:20;;;;;;;0.32;0.10;;;;;;;;;;4980100;28;20053;-85
2023/08/05 04:34:47;;;;;;;0.20;0.10;;;;;;;;;;4976920;28;20038;-87
2023/08/05 04:37:16;;;;;;;0.30;0.30;;;;;;;;;;4979734;28;20069;-85
2023/08/05 04:39:43;;;;;;;0.20;0.10;;;;;;;;;;4997986;28;20046;-87
2023/08/05 04:42:09;;;;;;;0.20;0.10;;;;;;;;;;4996938;28;20054;-85
2023/08/05 04:44:35;;;;;;;0.20;0.10;;;;;;;;;;4994552;28;20050;-86
2023/08/05 04:47:02;;;;;;;0.32;0.22;;;;;;;;;;4982329;28;20520;-84
2023/08/05 04:49:28;;;;;;;0.20;0.10;;;;;;;;;;4993410;28;20053;-84
2023/08/05 04:51:54;;;;;;;0.20;0.00;;;;;;;;;;4995226;28;20043;-84
2023/08/05 04:54:20;;;;;;;0.20;0.00;;;;;;;;;;4985178;28;20052;-85
2023/08/05 04:56:46;;;;;;;0.20;0.10;;;;;;;;;;4984661;28;21789;-86
2023/08/05 04:59:13;;;;;;;1.92;0.22;;;;;;;;;;4998006;28;20108;-85
2023/08/05 05:01:38;;;;;;;0.20;0.10;;;;;;;;;;4984431;28;20124;-85
2023/08/05 05:04:04;;;;;;;0.20;0.10;;;;;;;;;;4997316;28;20042;-85
2023/08/05 05:06:30;;;;;;;0.20;0.10;;;;;;;;;;4992519;28;20897;-84
2023/08/05 05:08:56;;;;;;;0.22;0.13;;;;;;;;;;4994374;28;20069;-85
2023/08/05 05:11:23;;;;;;;0.20;0.10;;;;;;;;;;4991873;28;20058;-84
2023/08/05 05:13:52;;;;;;;0.20;0.10;;;;;;;;;;4996975;28;20061;-84
2023/08/05 05:16:18;;;;;;;0.20;0.00;;;;;;;;;;4996035;28;20091;-85
2023/08/05 05:18:44;;;;;;;0.20;0.10;;;;;;;;;;4997314;28;20072;-85
2023/08/05 05:21:10;;;;;;;0.20;0.00;;;;;;;;;;4995117;28;20044;-85
2023/08/05 05:23:38;;;;;;;0.20;0.10;;;;;;;;;;4996610;28;20163;-85
2023/08/05 05:26:04;;;;;;;0.20;0.08;;;;;;;;;;5005959;28;20569;-86
2023/08/05 05:28:30;;;;;;;0.20;0.10;;;;;;;;;;4994098;28;20073;-85
2023/08/05 05:30:58;;;;;;;0.20;0.10;;;;;;;;;;4987587;28;20056;-85
2023/08/05 05:33:24;;;;;;;0.20;0.00;;;;;;;;;;4979911;28;20069;-85
2023/08/05 05:35:51;;;;;;;1.45;0.20;;;;;;;;;;4986770;28;20560;-86
2023/08/05 05:38:17;;;;;;;0.20;0.10;;;;;;;;;;4988785;28;20049;-85
2023/08/05 05:40:45;;;;;;;0.20;0.10;;;;;;;;;;4980851;28;20176;-85
2023/08/05 05:43:11;;;;;;;0.20;0.00;;;;;;;;;;4988643;28;20079;-84
2023/08/05 05:45:39;;;;;;;0.20;0.10;;;;;;;;;;4982254;28;20043;-85
2023/08/05 05:48:06;;;;;;;0.20;0.15;;;;;;;;;;4972372;28;20069;-84
2023/08/05 05:50:32;;;;;;;0.20;0.10;;;;;;;;;;4988778;28;20052;-84
2023/08/05 05:52:58;;;;;;;0.20;0.10;;;;;;;;;;4977889;28;20120;-86
2023/08/05 05:55:24;;;;;;;0.20;0.10;;;;;;;;;;4983471;28;20048;-84
2023/08/05 05:57:50;;;;;;;0.20;0.10;;;;;;;;;;4972194;28;20058;-84
2023/08/05 06:00:19;;;;;;;0.20;0.10;;;;;;;;;;4989265;28;20049;-84
2023/08/05 06:02:53;;;;;;;0.20;0.10;;;;;;;;;;4986819;28;20042;-85
2023/08/05 06:05:26;;;;;;;0.20;0.10;;;;;;;;;;4993441;28;20058;-85
2023/08/05 06:07:52;;;;;;;0.20;0.10;;;;;;;;;;4980688;28;20646;-87
2023/08/05 06:10:18;;;;;;;0.20;0.10;;;;;;;;;;4995925;28;20117;-85
2023/08/05 06:12:44;;;;;;;0.30;0.10;;;;;;;;;;4991256;28;20049;-85
2023/08/05 06:15:13;;;;;;;0.20;0.10;;;;;;;;;;4993701;28;20129;-85
2023/08/05 06:17:49;;;;;;;0.20;0.10;;;;;;;;;;4988529;28;20111;-85
2023/08/05 06:21:19;;;;;;;;;;;;;;;;;;;;;
2023/08/05 06:23:57;;;;;;;0.20;0.10;;;;;;;;;;4987628;28;20034;-84
2023/08/05 06:30:36;;;;;;;0.30;0.25;;;;;;;;;;4995294;28;20042;-84
2023/08/05 06:36:00;;;;;;;0.20;0.10;;;;;;;;;;4994985;28;20049;-85
2023/08/05 06:38:26;;;;;;;0.20;0.10;;;;;;;;;;4984449;28;20895;-83
2023/08/05 06:41:04;;;;;;;0.20;0.10;;;;;;;;;;4995454;28;20073;-83
2023/08/05 06:43:57;;;;;;;0.20;0.00;;;;;;;;;;4992803;28;20050;-84
2023/08/05 06:46:41;;;;;;;0.20;0.10;;;;;;;;;;5001833;28;20037;-87
2023/08/05 06:49:41;;;;;;;;;;;;;;;;;;;;;
2023/08/05 06:52:26;;;;;;;0.20;0.10;;;;;;;;;;4995892;28;20184;-85
2023/08/05 06:55:28;;;;;;;0.20;0.10;;;;;;;;;;5008578;28;20049;-85
2023/08/05 06:57:57;;;;;;;0.20;0.10;;;;;;;;;;4998148;28;20046;-85
2023/08/05 07:01:01;;;;;;;0.20;0.00;;;;;;;;;;4984242;28;20049;-85
2023/08/05 07:03:44;;;;;;;0.20;0.10;;;;;;;;;;4990293;28;20034;-86
2023/08/05 07:10:12;;;;;;;;;;;;;;;;;;;;;
2023/08/05 07:16:29;;;;;;;1.50;0.45;;;;;;;;;;4869136;29;20578;-85
2023/08/05 07:19:13;;;;;;;0.20;0.10;;;;;;;;;;4898757;29;20122;-85
2023/08/05 07:21:50;;;;;;;0.20;0.10;;;;;;;;;;4983237;28;20058;-84
2023/08/05 07:24:52;;;;;;;0.20;0.00;;;;;;;;;;4998874;28;20048;-86
2023/08/05 07:27:31;;;;;;;0.20;0.10;;;;;;;;;;4992535;28;20904;-87
2023/08/05 07:30:37;;;;;;;;;;;;;;;;;;;;;
2023/08/05 07:33:09;;;;;;;0.20;0.10;;;;;;;;;;4993364;28;20044;-84
2023/08/05 07:36:01;;;;;;;0.20;0.10;;;;;;;;;;4998178;28;20054;-85
2023/08/05 07:41:40;;;;;;;0.20;0.10;;;;;;;;;;4980989;28;20134;-85
2023/08/05 07:44:09;;;;;;;0.20;0.10;;;;;;;;;;4989847;28;20300;-85
2023/08/05 07:47:09;;;;;;;0.20;0.00;;;;;;;;;;4986043;28;20050;-86
2023/08/05 07:49:46;;;;;;;0.20;0.10;;;;;;;;;;4994874;28;20081;-86
2023/08/05 07:52:49;;;;;;;0.20;0.00;;;;;;;;;;4998956;28;21016;-87
2023/08/05 07:58:48;;;;;;;0.20;0.00;;;;;;;;;;4997575;28;20041;-87
2023/08/05 08:01:22;;;;;;;0.20;0.10;;;;;;;;;;4997029;28;20057;-84
2023/08/05 08:03:53;;;;;;;0.20;0.10;;;;;;;;;;4998331;28;20037;-84
2023/08/05 08:06:36;;;;;;;;;;;;;;;;;;;;;
2023/08/05 08:09:07;;;;;;;;;;;;;;;;;;4997751;28;20081;-86
2023/08/05 08:11:36;;;;;;;0.20;0.10;;;;;;;;;;4984450;28;19917;-84
2023/08/05 08:14:13;;;;;;;0.20;0.10;;;;;;;;;;4996927;28;20043;-87
2023/08/05 08:16:50;;;;;;;0.20;0.10;;;;;;;;;;4982112;28;20371;-86
2023/08/05 08:19:19;;;;;;;0.20;0.10;;;;;;;;;;4993342;28;20121;-85
2023/08/05 08:21:45;;;;;;;0.20;0.10;;;;;;;;;;4986590;28;20998;-88
2023/08/05 08:24:12;;;;;;;0.20;0.10;;;;;;;;;;4994500;28;20175;-87
2023/08/05 08:26:41;;;;;;;0.20;0.10;;;;;;;;;;4994611;28;20069;-85
2023/08/05 08:29:10;;;;;;;0.20;0.05;;;;;;;;;;4989920;28;20033;-85
2023/08/05 08:31:36;;;;;;;0.20;0.00;;;;;;;;;;4990926;28;20048;-85
2023/08/05 08:34:02;;;;;;;0.20;0.03;;;;;;;;;;5032733;22;20061;-80
2023/08/05 08:36:28;;;;;;;0.30;0.20;;;;;;;;;;5017849;28;20056;-81
2023/08/05 08:38:54;;;;;;;0.20;0.20;;;;;;;;;;5016955;28;20037;-80
2023/08/05 08:41:20;;;;;;;0.20;0.10;;;;;;;;;;5018970;28;20041;-79
2023/08/05 08:43:48;;;;;;;0.30;0.10;;;;;;;;;;5000261;28;20073;-83
2023/08/05 08:46:14;;;;;;;0.20;0.10;;;;;;;;;;4979599;28;20061;-82
2023/08/05 08:48:41;;;;;;;0.20;0.10;;;;;;;;;;4997752;28;20049;-81
2023/08/05 08:51:08;;;;;;;0.20;0.10;;;;;;;;;;4990741;28;20041;-82
2023/08/05 08:53:34;;;;;;;0.20;0.10;;;;;;;;;;4991497;28;20038;-81
2023/08/05 08:56:01;;;;;;;0.20;0.10;;;;;;;;;;4974266;28;20042;-82
2023/08/05 08:58:27;;;;;;;0.20;0.10;;;;;;;;;;4993682;28;20048;-80
2023/08/05 09:00:53;;;;;;;0.20;0.10;;;;;;;;;;4974551;28;20050;-80
2023/08/05 09:03:22;;;;;;;0.20;0.10;;;;;;;;;;4992608;28;20442;-81
2023/08/05 09:05:54;;;;;;;0.20;0.10;;;;;;;;;;4992824;28;20499;-81
2023/08/05 09:08:20;;;;;;;;;;;;;;;;;;4995025;28;20057;-83
2023/08/05 09:10:46;;;;;;;0.20;0.10;;;;;;;;;;4976096;28;20390;-84
2023/08/05 09:13:16;;;;;;;0.20;0.08;;;;;;;;;;4990687;28;20034;-81
2023/08/05 09:15:42;;;;;;;0.20;0.10;;;;;;;;;;4995004;28;20100;-83
2023/08/05 09:18:09;;;;;;;0.20;0.10;;;;;;;;;;4978169;28;20038;-81
2023/08/05 09:20:35;;;;;;;0.20;0.10;;;;;;;;;;4975025;28;20038;-82
2023/08/05 09:23:06;;;;;;;0.20;0.10;;;;;;;;;;4988280;28;20145;-83
2023/08/05 09:25:32;;;;;;;0.25;0.10;;;;;;;;;;4980951;28;20034;-85
2023/08/05 09:28:04;;;;;;;1.27;0.20;;;;;;;;;;4994746;28;20405;-81
2023/08/05 09:30:30;;;;;;;0.20;0.10;;;;;;;;;;4992150;28;20561;-83
2023/08/05 09:32:56;;;;;;;0.30;0.20;;;;;;;;;;4982114;28;20125;-82
2023/08/05 09:35:22;;;;;;;0.20;0.10;;;;;;;;;;4972393;28;20129;-81
2023/08/05 09:37:49;;;;;;;0.20;0.10;;;;;;;;;;4991261;28;20046;-81
2023/08/05 09:40:22;;;;;;;0.20;0.00;;;;;;;;;;4980654;28;20049;-79
2023/08/05 09:42:49;;;;;;;0.20;0.10;;;;;;;;;;4997817;28;20041;-81
2023/08/05 09:45:16;;;;;;;0.20;0.20;;;;;;;;;;4994724;28;20044;-83
2023/08/05 09:47:42;;;;;;;0.20;0.10;;;;;;;;;;5000146;28;20054;-84
2023/08/05 09:50:12;;;;;;;0.20;0.10;;;;;;;;;;4971395;28;20065;-84
2023/08/05 09:52:39;;;;;;;0.20;0.10;;;;;;;;;;4972002;28;20818;-82
2023/08/05 09:55:21;;;;;;;0.20;0.10;;;;;;;;;;4989091;28;20053;-80
2023/08/05 09:57:47;;;;;;;0.20;0.10;;;;;;;;;;4988834;28;20056;-80
2023/08/05 10:00:14;;;;;;;0.20;0.08;;;;;;;;;;4979958;28;20137;-81
2023/08/05 10:02:44;;;;;;;0.20;0.10;;;;;;;;;;4990642;28;20039;-81
2023/08/05 10:05:12;;;;;;;0.20;0.10;;;;;;;;;;4989963;28;20455;-83
2023/08/05 10:07:40;;;;;;;0.30;0.30;;;;;;;;;;4991795;28;20459;-80
2023/08/05 10:10:21;;;;;;;0.20;0.10;;;;;;;;;;4976285;28;20046;-81
2023/08/05 10:12:50;;;;;;;0.20;0.10;;;;;;;;;;4994789;28;20128;-81
2023/08/05 10:15:25;;;;;;;1.65;0.80;;;;;;;;;;4993128;28;20069;-86
2023/08/05 10:17:52;;;;;;;0.20;0.10;;;;;;;;;;4976454;28;20038;-83
2023/08/05 10:20:18;;;;;;;0.22;0.10;;;;;;;;;;4989458;28;20539;-84
2023/08/05 10:23:03;;;;;;;0.20;0.10;;;;;;;;;;4988865;28;21175;-81
2023/08/05 10:25:42;;;;;;;0.20;0.10;;;;;;;;;;4994395;28;20046;-80
2023/08/05 10:28:42;;;;;;;0.20;0.00;;;;;;;;;;4976207;28;20394;-82
2023/08/05 10:31:28;;;;;;;0.20;0.10;;;;;;;;;;4956767;28;20112;-82
2023/08/05 10:34:10;;;;;;;0.20;0.10;;;;;;;;;;4996964;28;20407;-84
2023/08/05 10:37:03;;;;;;;0.45;0.15;;;;;;;;;;4983736;28;20242;-82
2023/08/05 10:39:44;;;;;;;0.20;0.10;;;;;;;;;;4983249;28;20188;-85
2023/08/05 10:42:39;;;;;;;0.20;0.00;;;;;;;;;;4972847;28;20105;-84
2023/08/05 10:45:06;;;;;;;0.20;0.10;;;;;;;;;;4978693;28;20469;-84
2023/08/05 10:47:33;;;;;;;0.20;0.10;;;;;;;;;;4979683;28;20155;-83
2023/08/05 10:49:59;;;;;;;0.20;0.10;;;;;;;;;;4973056;28;20031;-81
2023/08/05 10:52:26;;;;;;;0.20;0.10;;;;;;;;;;4991224;28;20061;-81
2023/08/05 10:54:53;;;;;;;0.20;0.10;;;;;;;;;;4991454;28;20030;-84
2023/08/05 10:57:29;;;;;;;0.20;0.10;;;;;;;;;;4977141;28;20033;-80
2023/08/05 10:59:59;;;;;;;0.20;0.10;;;;;;;;;;4991432;28;20046;-80
2023/08/05 11:02:25;;;;;;;0.20;0.10;;;;;;;;;;4990261;28;20116;-80
2023/08/05 11:04:52;;;;;;;0.20;0.10;;;;;;;;;;4989218;28;20034;-82
2023/08/05 11:07:18;;;;;;;0.20;0.10;;;;;;;;;;4981100;28;20050;-81
2023/08/05 11:09:46;;;;;;;0.20;0.10;;;;;;;;;;4996868;28;20039;-84
2023/08/05 11:12:13;;;;;;;0.20;0.10;;;;;;;;;;4989817;28;20046;-82
2023/08/05 11:14:39;;;;;;;0.20;0.10;;;;;;;;;;4977651;28;20038;-81
2023/08/05 11:17:07;;;;;;;0.20;0.10;;;;;;;;;;4989592;28;20450;-80
2023/08/05 11:19:52;;;;;;;0.32;0.20;;;;;;;;;;4979093;28;20045;-81
2023/08/05 11:22:26;;;;;;;0.30;0.28;;;;;;;;;;4993050;28;20034;-83
2023/08/05 11:24:56;;;;;;;0.20;0.10;;;;;;;;;;4990051;28;20041;-82
2023/08/05 11:27:29;;;;;;;0.20;0.00;;;;;;;;;;4974589;28;20137;-86
2023/08/05 11:29:55;;;;;;;0.20;0.08;;;;;;;;;;4974140;28;20489;-80
2023/08/05 11:32:21;;;;;;;0.20;0.10;;;;;;;;;;4980822;28;20317;-82
2023/08/05 11:34:48;;;;;;;0.20;0.10;;;;;;;;;;4995699;28;20399;-81
2023/08/05 11:37:14;;;;;;;0.20;0.10;;;;;;;;;;5008599;28;20050;-84
2023/08/05 11:39:40;;;;;;;0.20;0.10;;;;;;;;;;4988390;28;20281;-80
2023/08/05 11:42:07;;;;;;;0.20;0.20;;;;;;;;;;4992246;28;20034;-82
2023/08/05 11:44:33;;;;;;;0.20;0.10;;;;;;;;;;4982754;28;20455;-85
2023/08/05 11:47:03;;;;;;;0.20;0.00;;;;;;;;;;4990344;28;20456;-84
2023/08/05 11:49:29;;;;;;;0.30;0.28;;;;;;;;;;4987929;28;20415;-83
2023/08/05 11:51:55;;;;;;;0.20;0.08;;;;;;;;;;4976916;28;20034;-85
2023/08/05 11:54:28;;;;;;;0.20;0.10;;;;;;;;;;4968770;28;20417;-84
2023/08/05 11:56:54;;;;;;;0.20;0.10;;;;;;;;;;4967462;28;20045;-83
2023/08/05 11:59:39;;;;;;;0.55;0.13;;;;;;;;;;4973651;28;20038;-80
2023/08/05 12:02:07;;;;;;;0.20;0.10;;;;;;;;;;4970549;28;20703;-81
2023/08/05 12:04:41;;;;;;;0.20;0.10;;;;;;;;;;4990006;28;20554;-81
2023/08/05 12:07:10;;;;;;;0.20;0.10;;;;;;;;;;4975193;28;20030;-86
2023/08/05 12:09:36;;;;;;;0.35;0.30;;;;;;;;;;4969413;28;20042;-80
2023/08/05 12:12:02;;;;;;;0.30;0.20;;;;;;;;;;4986042;28;20096;-82
2023/08/05 12:14:28;;;;;;;0.30;0.30;;;;;;;;;;4993190;28;20050;-81
2023/08/05 12:16:59;;;;;;;0.20;0.10;;;;;;;;;;4975015;28;20385;-80
2023/08/05 12:19:28;;;;;;;0.20;0.10;;;;;;;;;;4973775;28;20034;-84
2023/08/05 12:21:54;;;;;;;0.30;0.20;;;;;;;;;;4974889;28;20048;-80
2023/08/05 12:24:20;;;;;;;0.40;0.40;;;;;;;;;;4996169;28;20039;-82
2023/08/05 12:26:46;;;;;;;0.65;0.63;;;;;;;;;;4981849;28;20035;-80
2023/08/05 12:29:12;;;;;;;0.30;0.20;;;;;;;;;;4986649;28;20088;-81
2023/08/05 12:31:38;;;;;;;0.32;0.30;;;;;;;;;;4980466;28;20050;-80
2023/08/05 12:34:04;;;;;;;0.20;0.20;;;;;;;;;;4991621;28;20095;-82
2023/08/05 12:36:30;;;;;;;0.55;0.55;;;;;;;;;;4966370;28;20046;-81
2023/08/05 12:38:56;;;;;;;0.20;0.10;;;;;;;;;;4988656;28;20588;-83
2023/08/05 12:41:23;;;;;;;0.30;0.25;;;;;;;;;;4993153;28;20045;-82
2023/08/05 12:43:49;;;;;;;2.03;0.50;;;;;;;;;;4993093;28;20054;-81
2023/08/05 12:46:15;;;;;;;0.20;0.17;;;;;;;;;;4976364;28;20038;-81
2023/08/05 12:48:59;;;;;;;0.73;0.55;;;;;;;;;;4980037;28;20078;-86
2023/08/05 12:51:46;;;;;;;0.20;0.10;;;;;;;;;;4987377;28;20054;-83
2023/08/05 12:54:12;;;;;;;0.20;0.10;;;;;;;;;;4994225;28;20037;-81
2023/08/05 12:56:38;;;;;;;0.22;0.22;;;;;;;;;;4978335;28;20541;-81
2023/08/05 12:59:04;;;;;;;0.20;0.17;;;;;;;;;;4987927;28;21105;-86
2023/08/05 13:01:30;;;;;;;0.20;0.20;;;;;;;;;;4987758;28;20046;-81
2023/08/05 13:03:56;;;;;;;0.20;0.05;;;;;;;;;;4985683;28;20046;-78
2023/08/05 13:06:22;;;;;;;1.05;0.20;;;;;;;;;;4973349;28;20045;-83
2023/08/05 13:08:48;;;;;;;0.20;0.20;;;;;;;;;;4988571;28;20040;-79
2023/08/05 13:11:14;;;;;;;0.20;0.10;;;;;;;;;;4987495;28;20033;-80
2023/08/05 13:13:40;;;;;;;0.25;0.13;;;;;;;;;;4992553;28;20045;-83
2023/08/05 13:16:06;;;;;;;0.50;0.35;;;;;;;;;;4973975;28;20107;-80
2023/08/05 13:18:33;;;;;;;0.20;0.10;;;;;;;;;;4985173;28;20104;-82
2023/08/05 13:20:59;;;;;;;0.20;0.10;;;;;;;;;;4998490;28;20073;-80
2023/08/05 13:23:25;;;;;;;0.32;0.30;;;;;;;;;;4979129;28;21269;-83
2023/08/05 13:25:51;;;;;;;0.55;0.32;;;;;;;;;;4990472;28;20145;-82
2023/08/05 13:28:17;;;;;;;0.20;0.10;;;;;;;;;;4984325;28;20124;-82
2023/08/05 13:30:44;;;;;;;0.20;0.20;;;;;;;;;;4975640;28;20057;-83
2023/08/05 13:33:10;;;;;;;0.50;0.30;;;;;;;;;;4990972;28;20046;-79
2023/08/05 13:35:36;;;;;;;0.20;0.13;;;;;;;;;;4993672;28;20044;-83
2023/08/05 13:38:05;;;;;;;0.40;0.20;;;;;;;;;;4991576;28;20041;-83
2023/08/05 13:40:35;;;;;;;0.63;0.20;;;;;;;;;;4973899;28;20065;-84
2023/08/05 13:43:01;;;;;;;0.35;0.25;;;;;;;;;;4974357;28;20050;-80
2023/08/05 13:45:27;;;;;;;0.38;0.38;;;;;;;;;;4995129;28;20128;-80
2023/08/05 13:47:53;;;;;;;0.20;0.10;;;;;;;;;;4992349;28;20731;-81
2023/08/05 13:50:19;;;;;;;0.30;0.30;;;;;;;;;;4993680;28;20073;-82
2023/08/05 13:52:45;;;;;;;0.40;0.38;;;;;;;;;;4995561;28;20045;-81
2023/08/05 13:55:12;;;;;;;0.20;0.10;;;;;;;;;;5001679;28;20049;-80
2023/08/05 13:57:38;;;;;;;0.20;0.10;;;;;;;;;;5003313;28;20052;-80
2023/08/05 14:00:04;;;;;;;0.20;0.10;;;;;;;;;;4987157;28;20066;-81
2023/08/05 14:02:30;;;;;;;0.25;0.15;;;;;;;;;;4986681;28;20738;-81
2023/08/05 14:04:56;;;;;;;0.20;0.10;;;;;;;;;;5003536;28;20045;-80
2023/08/05 14:07:23;;;;;;;0.20;0.10;;;;;;;;;;5004189;28;20030;-79
2023/08/05 14:09:49;;;;;;;0.20;0.10;;;;;;;;;;4997234;28;20053;-80
2023/08/05 14:12:15;;;;;;;0.20;0.10;;;;;;;;;;4994617;28;21318;-82
2023/08/05 14:14:41;;;;;;;0.20;0.10;;;;;;;;;;4986187;28;20042;-80
2023/08/05 14:17:07;;;;;;;0.20;0.20;;;;;;;;;;4987541;28;20046;-83
2023/08/05 14:19:33;;;;;;;0.20;0.10;;;;;;;;;;5005121;28;20034;-81
2023/08/05 14:21:59;;;;;;;0.20;0.10;;;;;;;;;;4999063;28;20124;-82
2023/08/05 14:24:25;;;;;;;0.32;0.32;;;;;;;;;;4985148;28;20149;-85
2023/08/05 14:26:51;;;;;;;0.22;0.10;;;;;;;;;;4999069;28;20065;-79
2023/08/05 14:29:17;;;;;;;0.65;0.15;;;;;;;;;;4997123;28;20178;-81
2023/08/05 14:31:43;;;;;;;0.47;0.47;;;;;;;;;;4978530;28;20050;-80
2023/08/05 14:37:40;;;;;;;0.20;0.10;;;;;;;;;;4975977;28;20846;-83
2023/08/05 14:40:06;;;;;;;0.20;0.20;;;;;;;;;;4989256;28;21092;-86
2023/08/05 14:42:32;;;;;;;0.20;0.10;;;;;;;;;;5002985;28;20162;-85
2023/08/05 14:44:58;;;;;;;0.57;0.20;;;;;;;;;;5002286;28;20499;-81
2023/08/05 14:47:24;;;;;;;0.20;0.20;;;;;;;;;;5015950;28;20699;-85
2023/08/05 14:49:56;;;;;;;0.20;0.10;;;;;;;;;;5010441;28;20124;-85
2023/08/05 14:52:25;;;;;;;0.20;0.10;;;;;;;;;;5004151;28;20049;-87
2023/08/05 14:54:57;;;;;;;0.20;0.10;;;;;;;;;;4997333;28;20041;-88
2023/08/05 14:57:23;;;;;;;;;;;;;;;;;;4988483;28;20120;-83
2023/08/05 15:00:03;;;;;;;0.20;0.10;;;;;;;;;;4997323;28;19917;-84
2023/08/05 15:02:31;;;;;;;0.20;0.10;;;;;;;;;;4998972;28;20037;-88
2023/08/05 15:04:57;;;;;;;0.20;0.10;;;;;;;;;;5009820;28;20045;-87
2023/08/05 15:07:24;;;;;;;0.20;0.10;;;;;;;;;;5004281;28;20096;-88
2023/08/05 15:09:50;;;;;;;0.20;0.03;;;;;;;;;;4997770;28;20077;-87
2023/08/05 15:12:16;;;;;;;0.20;0.15;;;;;;;;;;5003544;28;20498;-85
2023/08/05 15:14:42;;;;;;;0.20;0.10;;;;;;;;;;4998452;28;20045;-85
2023/08/05 15:17:08;;;;;;;0.20;0.10;;;;;;;;;;5010145;28;20048;-85
2023/08/05 15:19:34;;;;;;;0.20;0.10;;;;;;;;;;5004809;28;20123;-85
2023/08/05 15:22:03;;;;;;;0.20;0.10;;;;;;;;;;4992407;28;20053;-83
2023/08/05 15:24:34;;;;;;;0.20;0.10;;;;;;;;;;4988627;28;20038;-86